createdAt,value
2018-09-23T00:00:17.076Z,28.03
2018-09-23T00:02:45.533Z,22.73
2018-09-23T00:05:13.995Z,25.43
2018-09-23T00:07:42.449Z,24.10
2018-09-23T00:10:10.900Z,24.03
2018-09-23T00:12:39.348Z,27.00
2018-09-23T00:15:08.117Z,27.00
2018-09-23T00:17:36.612Z,32.43
2018-09-23T00:20:05.607Z,30.33
2018-09-23T00:22:34.105Z,26.60
2018-09-23T00:25:02.653Z,27.10
2018-09-23T00:27:31.111Z,27.00
2018-09-23T00:29:59.589Z,25.73
2018-09-23T00:32:28.056Z,32.67
2018-09-23T00:34:56.505Z,26.40
2018-09-23T00:37:24.972Z,26.17
2018-09-23T00:39:53.416Z,22.27
2018-09-23T00:42:21.853Z,36.87
2018-09-23T00:44:50.318Z,34.60
2018-09-23T00:47:18.781Z,33.83
2018-09-23T00:49:47.213Z,23.97
2018-09-23T00:52:15.665Z,19.67
2018-09-23T00:54:44.088Z,25.47
2018-09-23T00:57:12.533Z,22.13
2018-09-23T00:59:40.979Z,24.77
2018-09-23T01:02:09.471Z,21.63
2018-09-23T01:04:37.904Z,33.10
2018-09-23T01:07:06.488Z,25.00
2018-09-23T01:09:34.989Z,27.33
2018-09-23T01:12:03.414Z,26.63
2018-09-23T01:14:31.906Z,20.20
2018-09-23T01:17:00.369Z,24.33
2018-09-23T01:19:28.825Z,24.33
2018-09-23T01:21:57.282Z,23.70
2018-09-23T01:24:25.820Z,22.97
2018-09-23T01:26:54.287Z,23.87
2018-09-23T01:29:22.761Z,22.70
2018-09-23T01:31:51.214Z,21.00
2018-09-23T01:34:19.651Z,19.60
2018-09-23T01:36:48.113Z,17.23
2018-09-23T01:39:16.585Z,21.30
2018-09-23T01:41:45.040Z,23.83
2018-09-23T01:44:13.519Z,29.60
2018-09-23T01:46:41.966Z,35.43
2018-09-23T01:49:10.430Z,33.77
2018-09-23T01:51:38.887Z,27.63
2018-09-23T01:54:07.370Z,34.30
2018-09-23T01:56:35.829Z,29.30
2018-09-23T01:59:04.316Z,31.33
2018-09-23T02:01:32.769Z,24.87
2018-09-23T02:04:01.209Z,37.77
2018-09-23T02:06:29.672Z,36.10
2018-09-23T02:08:58.141Z,29.00
2018-09-23T02:11:26.585Z,26.00
2018-09-23T02:13:55.077Z,25.17
2018-09-23T02:16:23.530Z,36.10
2018-09-23T02:18:52.055Z,31.83
2018-09-23T02:21:20.561Z,42.40
2018-09-23T02:23:49.023Z,44.43
2018-09-23T02:26:17.481Z,44.57
2018-09-23T02:28:45.962Z,44.07
2018-09-23T02:31:14.422Z,36.00
2018-09-23T02:33:42.878Z,33.83
2018-09-23T02:36:11.343Z,37.37
2018-09-23T02:38:39.819Z,27.17
2018-09-23T02:41:08.283Z,34.90
2018-09-23T02:43:36.748Z,33.67
2018-09-23T02:46:05.218Z,46.27
2018-09-23T02:48:33.654Z,38.83
2018-09-23T02:51:02.091Z,35.03
2018-09-23T02:53:30.525Z,47.53
2018-09-23T02:55:59.041Z,45.30
2018-09-23T02:58:27.499Z,54.90
2018-09-23T03:00:55.965Z,54.43
2018-09-23T03:03:24.400Z,53.37
2018-09-23T03:05:52.915Z,49.83
2018-09-23T03:08:21.399Z,46.43
2018-09-23T03:10:50.130Z,58.27
2018-09-23T03:13:18.688Z,46.50
2018-09-23T03:15:47.157Z,49.60
2018-09-23T03:18:15.600Z,56.63
2018-09-23T03:20:44.077Z,54.00
2018-09-23T03:23:12.521Z,53.70
2018-09-23T03:25:40.975Z,56.50
2018-09-23T03:28:09.492Z,43.00
2018-09-23T03:30:37.962Z,54.93
2018-09-23T03:33:06.431Z,61.13
2018-09-23T03:35:34.907Z,45.47
2018-09-23T03:38:03.389Z,47.90
2018-09-23T03:40:31.858Z,59.13
2018-09-23T03:43:00.318Z,58.10
2018-09-23T03:45:28.767Z,46.10
2018-09-23T03:47:57.224Z,52.17
2018-09-23T03:50:25.708Z,48.00
2018-09-23T03:52:54.165Z,60.77
2018-09-23T03:55:22.629Z,43.67
2018-09-23T03:57:51.073Z,51.67
2018-09-23T04:00:19.513Z,46.50
2018-09-23T04:02:47.986Z,32.23
2018-09-23T04:05:16.466Z,42.20
2018-09-23T04:07:44.921Z,50.03
2018-09-23T04:10:13.379Z,44.00
2018-09-23T04:12:41.852Z,48.63
2018-09-23T04:15:10.308Z,41.73
2018-09-23T04:17:38.750Z,48.50
2018-09-23T04:20:07.259Z,33.33
2018-09-23T04:22:41.147Z,37.53
2018-09-23T04:25:09.783Z,36.87
2018-09-23T04:27:38.238Z,38.80
2018-09-23T04:30:06.838Z,34.90
2018-09-23T04:32:35.304Z,38.17
2018-09-23T04:35:03.822Z,35.83
2018-09-23T04:37:32.268Z,36.20
2018-09-23T04:40:00.775Z,39.20
2018-09-23T04:42:29.236Z,31.50
2018-09-23T04:44:58.114Z,30.40
2018-09-23T04:47:26.715Z,32.40
2018-09-23T04:49:55.162Z,31.67
2018-09-23T04:52:23.607Z,39.93
2018-09-23T04:54:52.131Z,36.37
2018-09-23T04:57:20.569Z,33.70
2018-09-23T04:59:49.042Z,43.43
2018-09-23T05:02:17.524Z,27.93
2018-09-23T05:04:45.975Z,39.50
2018-09-23T05:07:14.448Z,26.50
2018-09-23T05:09:42.913Z,26.07
2018-09-23T05:12:11.369Z,35.23
2018-09-23T05:14:39.817Z,29.83
2018-09-23T05:17:08.315Z,27.77
2018-09-23T05:19:36.794Z,28.30
2018-09-23T05:22:05.282Z,26.30
2018-09-23T05:24:33.807Z,28.67
2018-09-23T05:27:02.287Z,29.80
2018-09-23T05:29:30.761Z,23.47
2018-09-23T05:31:59.245Z,30.40
2018-09-23T05:34:27.717Z,26.40
2018-09-23T05:36:56.205Z,32.20
2018-09-23T05:39:24.665Z,26.77
2018-09-23T05:41:53.116Z,19.87
2018-09-23T05:44:21.573Z,28.67
2018-09-23T05:46:50.038Z,26.33
2018-09-23T05:49:18.491Z,21.70
2018-09-23T05:51:47.000Z,20.03
2018-09-23T05:54:15.535Z,22.50
2018-09-23T05:56:43.999Z,25.60
2018-09-23T05:59:12.463Z,18.97
2018-09-23T06:01:40.942Z,18.17
2018-09-23T06:04:09.453Z,18.73
2018-09-23T06:06:37.901Z,18.73
2018-09-23T06:09:06.913Z,22.87
2018-09-23T06:11:38.912Z,22.17
2018-09-23T06:14:07.951Z,24.13
2018-09-23T06:16:43.735Z,22.10
2018-09-23T06:19:12.246Z,19.23
2018-09-23T06:21:41.171Z,18.30
2018-09-23T06:24:09.642Z,18.97
2018-09-23T06:26:45.345Z,19.17
2018-09-23T06:29:13.841Z,18.13
2018-09-23T06:31:42.308Z,19.33
2018-09-23T06:34:10.840Z,21.70
2018-09-23T06:36:39.442Z,21.57
2018-09-23T06:39:08.829Z,24.00
2018-09-23T06:41:37.349Z,20.87
2018-09-23T06:44:05.943Z,17.77
2018-09-23T06:46:34.413Z,20.20
2018-09-23T06:49:02.901Z,20.10
2018-09-23T06:51:31.401Z,20.07
2018-09-23T06:53:59.865Z,24.70
2018-09-23T06:56:28.347Z,21.10
2018-09-23T06:58:56.796Z,19.97
2018-09-23T07:01:25.273Z,21.33
2018-09-23T07:03:53.749Z,25.80
2018-09-23T07:06:22.227Z,21.10
2018-09-23T07:08:50.735Z,24.03
2018-09-23T07:11:19.255Z,19.10
2018-09-23T07:13:50.574Z,28.07
2018-09-23T07:16:19.054Z,18.73
2018-09-23T07:18:48.414Z,22.77
2018-09-23T07:21:16.980Z,20.80
2018-09-23T07:23:45.484Z,27.20
2018-09-23T07:26:13.912Z,26.73
2018-09-23T07:28:42.372Z,26.33
2018-09-23T07:31:10.948Z,30.47
2018-09-23T07:33:39.402Z,27.43
2018-09-23T07:36:07.880Z,35.67
2018-09-23T07:38:36.408Z,22.27
2018-09-23T07:41:04.917Z,24.40
2018-09-23T07:43:33.361Z,24.53
2018-09-23T07:46:01.854Z,20.30
2018-09-23T07:48:30.298Z,24.07
2018-09-23T07:50:58.750Z,21.47
2018-09-23T07:53:27.465Z,24.67
2018-09-23T07:55:55.906Z,29.10
2018-09-23T07:58:24.362Z,27.10
2018-09-23T08:00:52.834Z,24.20
2018-09-23T08:03:21.277Z,21.17
2018-09-23T08:05:49.784Z,27.60
2018-09-23T08:08:18.232Z,21.10
2018-09-23T08:10:46.762Z,22.80
2018-09-23T08:13:15.397Z,18.80
2018-09-23T08:15:43.822Z,24.03
2018-09-23T08:18:12.334Z,19.60
2018-09-23T08:20:40.880Z,20.57
2018-09-23T08:23:09.310Z,18.10
2018-09-23T08:25:37.811Z,18.70
2018-09-23T08:28:06.261Z,17.07
2018-09-23T08:30:34.777Z,18.60
2018-09-23T08:33:03.288Z,19.37
2018-09-23T08:35:31.746Z,20.73
2018-09-23T08:38:00.232Z,18.17
2018-09-23T08:40:28.708Z,18.53
2018-09-23T08:42:57.236Z,18.57
2018-09-23T08:45:25.631Z,19.20
2018-09-23T08:47:54.154Z,22.17
2018-09-23T08:50:22.736Z,17.10
2018-09-23T08:52:51.208Z,19.63
2018-09-23T08:55:19.774Z,18.70
2018-09-23T08:57:48.286Z,18.97
2018-09-23T09:00:16.778Z,19.20
2018-09-23T09:02:45.238Z,17.57
2018-09-23T09:05:13.748Z,18.90
2018-09-23T09:07:42.244Z,20.30
2018-09-23T09:10:10.688Z,18.33
2018-09-23T09:12:39.172Z,16.83
2018-09-23T09:15:07.756Z,19.57
2018-09-23T09:17:36.237Z,18.20
2018-09-23T09:20:04.756Z,15.83
2018-09-23T09:22:33.244Z,16.37
2018-09-23T09:25:01.704Z,14.13
2018-09-23T09:27:30.184Z,16.67
2018-09-23T09:29:58.678Z,15.73
2018-09-23T09:32:27.198Z,14.60
2018-09-23T09:34:55.680Z,14.43
2018-09-23T09:37:24.143Z,18.43
2018-09-23T09:39:52.638Z,18.40
2018-09-23T09:42:21.096Z,16.10
2018-09-23T09:44:49.550Z,15.77
2018-09-23T09:47:18.017Z,15.97
2018-09-23T09:49:46.472Z,17.90
2018-09-23T09:52:14.948Z,16.20
2018-09-23T09:54:43.398Z,21.27
2018-09-23T09:57:11.868Z,23.37
2018-09-23T09:59:40.351Z,25.67
2018-09-23T10:02:08.825Z,25.87
2018-09-23T10:04:37.303Z,33.17
2018-09-23T10:07:06.078Z,30.03
2018-09-23T10:09:34.518Z,34.23
2018-09-23T10:12:02.953Z,36.60
2018-09-23T10:14:31.442Z,50.07
2018-09-23T10:16:59.965Z,68.57
2018-09-23T10:19:28.427Z,55.23
2018-09-23T10:21:56.921Z,71.27
2018-09-23T10:24:25.397Z,79.77
2018-09-23T10:26:53.880Z,60.43
2018-09-23T10:29:22.403Z,72.40
2018-09-23T10:31:50.850Z,85.73
2018-09-23T10:34:19.314Z,57.13
2018-09-23T10:36:47.795Z,50.07
2018-09-23T10:39:16.259Z,43.67
2018-09-23T10:41:44.731Z,57.40
2018-09-23T10:44:13.215Z,43.57
2018-09-23T10:46:41.712Z,49.23
2018-09-23T10:49:10.213Z,48.53
2018-09-23T10:51:38.715Z,33.73
2018-09-23T10:54:07.201Z,37.47
2018-09-23T10:56:36.698Z,39.07
2018-09-23T10:59:05.409Z,40.40
2018-09-23T11:01:33.892Z,41.63
2018-09-23T11:04:02.459Z,29.03
2018-09-23T11:06:30.898Z,44.57
2018-09-23T11:08:59.391Z,53.63
2018-09-23T11:11:27.898Z,34.13
2018-09-23T11:13:56.398Z,26.20
2018-09-23T11:16:26.636Z,33.50
2018-09-23T11:18:55.999Z,25.17
2018-09-23T11:21:25.573Z,23.43
2018-09-23T11:23:54.073Z,19.20
2018-09-23T11:26:22.561Z,13.63
2018-09-23T11:28:51.056Z,20.70
2018-09-23T11:31:19.519Z,20.80
2018-09-23T11:33:48.006Z,16.80
2018-09-23T11:36:16.450Z,15.03
2018-09-23T11:38:44.970Z,15.17
2018-09-23T11:41:13.496Z,14.57
2018-09-23T11:43:41.940Z,10.50
2018-09-23T11:46:10.420Z,9.93
2018-09-23T11:48:38.937Z,9.47
2018-09-23T11:51:07.647Z,8.50
2018-09-23T11:53:36.232Z,12.33
2018-09-23T11:56:04.746Z,11.17
2018-09-23T11:58:33.201Z,8.87
2018-09-23T12:01:01.669Z,9.60
2018-09-23T12:03:30.167Z,12.87
2018-09-23T12:05:58.639Z,9.13
2018-09-23T12:08:27.198Z,12.00
2018-09-23T12:10:55.705Z,11.60
2018-09-23T12:13:24.139Z,15.40
2018-09-23T12:15:52.609Z,14.80
2018-09-23T12:18:21.090Z,17.13
2018-09-23T12:20:49.543Z,17.83
2018-09-23T12:23:18.037Z,16.13
2018-09-23T12:25:46.634Z,14.30
2018-09-23T12:28:15.104Z,15.47
2018-09-23T12:30:43.589Z,12.93
2018-09-23T12:33:12.101Z,15.50
2018-09-23T12:35:40.529Z,15.27
2018-09-23T12:38:08.983Z,13.87
2018-09-23T12:40:37.440Z,19.73
2018-09-23T12:43:06.403Z,14.40
2018-09-23T12:45:34.835Z,17.57
2018-09-23T12:48:09.882Z,24.07
2018-09-23T12:50:38.381Z,25.43
2018-09-23T12:53:06.835Z,16.47
2018-09-23T12:55:35.313Z,17.77
2018-09-23T12:58:03.788Z,15.43
2018-09-23T13:00:32.229Z,15.00
2018-09-23T13:03:00.715Z,15.10
2018-09-23T13:05:29.147Z,14.23
2018-09-23T13:07:57.637Z,16.37
2018-09-23T13:10:26.136Z,18.97
2018-09-23T13:12:54.583Z,17.47
2018-09-23T13:15:23.058Z,14.17
2018-09-23T13:17:51.588Z,14.73
2018-09-23T13:20:20.248Z,15.87
2018-09-23T13:22:48.694Z,12.77
2018-09-23T13:25:17.193Z,15.77
2018-09-23T13:27:45.657Z,13.77
2018-09-23T13:30:14.175Z,14.57
2018-09-23T13:32:42.763Z,20.47
2018-09-23T13:35:11.309Z,15.60
2018-09-23T13:37:39.760Z,16.50
2018-09-23T13:40:08.393Z,16.23
2018-09-23T13:42:36.853Z,11.63
2018-09-23T13:45:05.393Z,11.87
2018-09-23T13:47:33.848Z,16.30
2018-09-23T13:50:02.328Z,11.77
2018-09-23T13:52:30.781Z,9.93
2018-09-23T13:54:59.213Z,10.90
2018-09-23T13:57:27.693Z,10.33
2018-09-23T13:59:56.157Z,7.97
2018-09-23T14:02:24.618Z,8.87
2018-09-23T14:04:53.126Z,7.30
2018-09-23T14:07:21.555Z,7.20
2018-09-23T14:09:50.066Z,7.53
2018-09-23T14:12:18.652Z,6.10
2018-09-23T14:14:47.147Z,5.43
2018-09-23T14:17:15.609Z,4.90
2018-09-23T14:19:44.127Z,6.07
2018-09-23T14:22:12.597Z,5.30
2018-09-23T14:24:41.046Z,4.40
2018-09-23T14:27:09.488Z,4.17
2018-09-23T14:29:37.993Z,4.50
2018-09-23T14:32:06.517Z,5.23
2018-09-23T14:34:34.979Z,5.30
2018-09-23T14:37:03.432Z,6.73
2018-09-23T14:39:31.945Z,5.27
2018-09-23T14:42:00.443Z,6.73
2018-09-23T14:44:28.887Z,7.17
2018-09-23T14:46:57.436Z,6.07
2018-09-23T14:49:25.891Z,5.60
2018-09-23T14:51:54.329Z,7.43
2018-09-23T14:54:22.853Z,5.60
2018-09-23T14:56:51.277Z,6.40
2018-09-23T14:59:19.754Z,6.13
2018-09-23T15:01:48.270Z,5.83
2018-09-23T15:04:16.715Z,6.90
2018-09-23T15:06:45.176Z,6.77
2018-09-23T15:09:13.651Z,7.17
2018-09-23T15:11:42.294Z,7.73
2018-09-23T15:14:10.954Z,9.77
2018-09-23T15:16:39.594Z,8.10
2018-09-23T15:19:08.145Z,8.00
2018-09-23T15:21:36.601Z,9.03
2018-09-23T15:24:05.124Z,8.10
2018-09-23T15:26:33.555Z,7.83
2018-09-23T15:29:01.982Z,7.63
2018-09-23T15:31:30.436Z,7.47
2018-09-23T15:33:58.893Z,7.47
2018-09-23T15:36:27.330Z,6.27
2018-09-23T15:38:55.829Z,7.70
2018-09-23T15:41:24.324Z,5.70
2018-09-23T15:43:52.832Z,9.20
2018-09-23T15:46:21.295Z,7.97
2018-09-23T15:48:49.862Z,9.63
2018-09-23T15:51:18.309Z,12.33
2018-09-23T15:53:46.793Z,8.33
2018-09-23T15:56:15.218Z,6.57
2018-09-23T15:58:43.654Z,6.47
2018-09-23T16:01:12.125Z,5.33
2018-09-23T16:03:40.560Z,5.00
2018-09-23T16:06:09.008Z,6.67
2018-09-23T16:08:37.749Z,5.43
2018-09-23T16:11:07.425Z,5.83
2018-09-23T16:13:35.866Z,4.73
2018-09-23T16:16:04.344Z,3.87
2018-09-23T16:18:32.843Z,8.80
2018-09-23T16:21:01.288Z,4.67
2018-09-23T16:23:29.740Z,7.00
2018-09-23T16:25:58.212Z,4.40
2018-09-23T16:28:26.658Z,5.40
2018-09-23T16:30:55.116Z,4.00
2018-09-23T16:33:23.568Z,3.67
2018-09-23T16:35:52.023Z,5.10
2018-09-23T16:38:20.520Z,5.73
2018-09-23T16:40:48.938Z,5.17
2018-09-23T16:43:17.458Z,3.90
2018-09-23T16:45:45.932Z,5.53
2018-09-23T16:48:14.344Z,4.20
2018-09-23T16:50:42.799Z,4.27
2018-09-23T16:53:11.254Z,3.63
2018-09-23T16:55:39.948Z,3.53
2018-09-23T16:58:08.533Z,4.83
2018-09-23T17:00:37.058Z,4.83
2018-09-23T17:03:05.504Z,2.83
2018-09-23T17:05:34.140Z,5.47
2018-09-23T17:08:02.602Z,4.40
2018-09-23T17:10:31.028Z,4.97
2018-09-23T17:12:59.452Z,3.03
2018-09-23T17:15:27.901Z,5.07
2018-09-23T17:17:56.398Z,3.73
2018-09-23T17:20:24.861Z,4.33
2018-09-23T17:22:53.325Z,4.40
2018-09-23T17:25:21.787Z,5.23
2018-09-23T17:27:50.557Z,5.03
2018-09-23T17:30:19.049Z,3.93
2018-09-23T17:32:47.506Z,5.13
2018-09-23T17:35:15.987Z,3.17
2018-09-23T17:37:44.474Z,4.77
2018-09-23T17:40:12.962Z,4.67
2018-09-23T17:42:41.401Z,5.00
2018-09-23T17:45:09.929Z,3.30
2018-09-23T17:47:38.459Z,5.77
2018-09-23T17:50:07.493Z,2.30
2018-09-23T17:52:35.980Z,5.23
2018-09-23T17:55:04.933Z,5.23
2018-09-23T17:57:33.356Z,2.50
2018-09-23T18:00:01.807Z,3.43
2018-09-23T18:02:30.682Z,3.10
2018-09-23T18:04:59.122Z,2.23
2018-09-23T18:07:27.680Z,3.90
2018-09-23T18:09:56.131Z,3.73
2018-09-23T18:12:24.555Z,5.10
2018-09-23T18:14:53.020Z,3.90
2018-09-23T18:17:21.706Z,5.20
2018-09-23T18:19:50.135Z,4.30
2018-09-23T18:22:18.703Z,3.13
2018-09-23T18:24:47.165Z,5.40
2018-09-23T18:27:15.593Z,5.57
2018-09-23T18:29:44.096Z,4.17
2018-09-23T18:32:12.505Z,4.80
2018-09-23T18:34:40.956Z,3.20
2018-09-23T18:37:09.456Z,2.97
2018-09-23T18:39:37.915Z,4.77
2018-09-23T18:42:06.057Z,4.20
2018-09-23T18:44:34.579Z,5.80
2018-09-23T18:47:03.221Z,6.37
2018-09-23T18:49:31.648Z,3.47
2018-09-23T18:52:00.092Z,5.40
2018-09-23T18:54:33.907Z,6.17
2018-09-23T18:57:02.347Z,4.53
2018-09-23T18:59:30.828Z,5.17
2018-09-23T19:01:59.298Z,4.53
2018-09-23T19:04:27.765Z,3.93
2018-09-23T19:06:56.217Z,5.37
2018-09-23T19:09:24.654Z,7.07
2018-09-23T19:11:53.105Z,4.77
2018-09-23T19:14:21.563Z,5.07
2018-09-23T19:16:50.025Z,5.30
2018-09-23T19:19:18.682Z,4.73
2018-09-23T19:21:47.133Z,6.30
2018-09-23T19:24:15.684Z,4.93
2018-09-23T19:26:44.191Z,4.37
2018-09-23T19:29:12.649Z,4.17
2018-09-23T19:31:41.149Z,5.17
2018-09-23T19:34:09.601Z,4.60
2018-09-23T19:36:38.015Z,7.40
2018-09-23T19:39:08.063Z,5.43
2018-09-23T19:41:36.536Z,5.93
2018-09-23T19:44:04.994Z,7.67
2018-09-23T19:46:33.474Z,9.43
2018-09-23T19:49:01.925Z,7.30
2018-09-23T19:51:30.387Z,9.40
2018-09-23T19:53:58.894Z,9.10
2018-09-23T19:56:27.352Z,8.10
2018-09-23T19:58:55.787Z,9.53
2018-09-23T20:01:24.253Z,13.30
2018-09-23T20:03:52.706Z,12.50
2018-09-23T20:06:21.151Z,13.43
2018-09-23T20:08:49.588Z,11.67
2018-09-23T20:11:18.033Z,10.90
2018-09-23T20:13:46.471Z,12.47
2018-09-23T20:16:14.981Z,14.50
2018-09-23T20:18:43.434Z,11.17
2018-09-23T20:21:11.921Z,12.53
2018-09-23T20:23:40.413Z,13.03
2018-09-23T20:26:08.869Z,10.50
2018-09-23T20:28:37.363Z,17.27
2018-09-23T20:31:05.851Z,14.07
2018-09-23T20:33:34.304Z,13.47
2018-09-23T20:36:02.782Z,15.37
2018-09-23T20:38:31.243Z,16.10
2018-09-23T20:40:59.675Z,15.10
2018-09-23T20:43:28.178Z,16.13
2018-09-23T20:45:56.645Z,12.20
2018-09-23T20:48:25.092Z,14.77
2018-09-23T20:50:53.546Z,13.33
2018-09-23T20:53:21.996Z,12.90
2018-09-23T20:55:50.474Z,12.00
2018-09-23T20:58:18.886Z,10.97
2018-09-23T21:00:47.339Z,10.87
2018-09-23T21:03:15.780Z,13.07
2018-09-23T21:05:44.237Z,10.47
2018-09-23T21:08:12.646Z,9.97
2018-09-23T21:10:41.097Z,11.57
2018-09-23T21:13:09.526Z,12.67
2018-09-23T21:15:37.986Z,11.93
2018-09-23T21:18:06.468Z,12.33
2018-09-23T21:20:34.889Z,10.27
2018-09-23T21:23:03.348Z,11.37
2018-09-23T21:25:31.781Z,10.43
2018-09-23T21:28:00.227Z,7.80
2018-09-23T21:30:28.652Z,9.60
2018-09-23T21:32:57.101Z,12.80
2018-09-23T21:35:25.550Z,8.77
2018-09-23T21:37:53.979Z,10.93
2018-09-23T21:40:22.411Z,11.33
2018-09-23T21:42:50.982Z,10.50
2018-09-23T21:45:19.400Z,10.27
2018-09-23T21:47:47.870Z,12.43
2018-09-23T21:50:16.311Z,11.70
2018-09-23T21:52:44.821Z,9.00
2018-09-23T21:55:13.270Z,9.43
2018-09-23T21:57:41.703Z,10.50
2018-09-23T22:00:10.640Z,10.20
2018-09-23T22:02:39.106Z,8.97
2018-09-23T22:05:07.971Z,12.47
2018-09-23T22:07:36.392Z,10.57
2018-09-23T22:10:05.256Z,10.30
2018-09-23T22:12:33.724Z,11.70
2018-09-23T22:15:02.214Z,11.40
2018-09-23T22:17:31.052Z,10.30
2018-09-23T22:19:59.480Z,9.17
2018-09-23T22:22:27.909Z,11.77
2018-09-23T22:24:56.365Z,14.30
2018-09-23T22:27:24.789Z,9.23
2018-09-23T22:29:53.212Z,11.67
2018-09-23T22:32:21.660Z,11.20
2018-09-23T22:34:50.089Z,14.60
2018-09-23T22:37:18.517Z,13.13
2018-09-23T22:39:46.955Z,12.60
2018-09-23T22:42:15.375Z,11.77
2018-09-23T22:44:43.789Z,15.50
2018-09-23T22:47:12.220Z,16.40
2018-09-23T22:49:40.649Z,12.93
2018-09-23T22:52:09.069Z,11.30
2018-09-23T22:54:37.514Z,11.90
2018-09-23T22:57:06.053Z,10.47
2018-09-23T22:59:34.468Z,14.80
2018-09-23T23:02:02.937Z,13.60
2018-09-23T23:04:31.369Z,13.37
2018-09-23T23:06:59.801Z,14.70
2018-09-23T23:09:28.223Z,15.33
2018-09-23T23:11:56.631Z,13.40
2018-09-23T23:14:25.063Z,9.47
2018-09-23T23:16:53.526Z,11.30
2018-09-23T23:19:22.055Z,9.47
2018-09-23T23:21:50.542Z,7.50
2018-09-23T23:24:18.982Z,6.73
2018-09-23T23:26:47.419Z,7.20
2018-09-23T23:29:16.206Z,5.83
2018-09-23T23:31:44.688Z,6.43
2018-09-23T23:34:13.461Z,3.80
2018-09-23T23:36:41.885Z,4.33
2018-09-23T23:39:11.166Z,5.97
2018-09-23T23:41:39.933Z,4.57
2018-09-23T23:44:08.824Z,5.40
2018-09-23T23:46:37.624Z,4.77
2018-09-23T23:49:06.059Z,7.20
2018-09-23T23:51:34.478Z,7.23
2018-09-23T23:54:02.992Z,4.87
2018-09-23T23:56:31.445Z,5.77
2018-09-23T23:58:59.932Z,9.00
